Time;durP1;ratioP1;P1;durP2;ratioP2;P2;SDS_P1;SDS_P2;PMS_P1;PMS_P2;Temp;Humidity;BMP_temperature;BMP_pressure;BME280_temperature;BME280_humidity;BME280_pressure;Samples;Min_cycle;Max_cycle;Signal;HPM_P1;HPM_P2
2021/06/09 00:01:49;;;;;;;;;3.25;2.00;;;;;23.28;37.67;101884.09;5072113;27;45348;-85
2021/06/09 00:04:15;;;;;;;;;3.00;3.00;;;;;23.38;37.43;101895.66;5057637;28;45570;-86
2021/06/09 00:06:40;;;;;;;;;3.25;2.75;;;;;23.28;37.13;101881.47;5057152;28;46086;-85
2021/06/09 00:09:07;;;;;;;;;3.25;3.00;;;;;23.33;36.99;101891.19;5058526;28;45256;-86
2021/06/09 00:11:33;;;;;;;;;5.50;4.00;;;;;23.27;37.37;101885.00;5062442;28;45401;-85
2021/06/09 00:13:58;;;;;;;;;4.00;4.00;;;;;23.22;37.36;101884.06;5057841;28;45329;-85
2021/06/09 00:16:25;;;;;;;;;2.50;2.50;;;;;23.19;37.33;101880.50;5056354;28;45486;-85
2021/06/09 00:18:50;;;;;;;;;4.00;3.00;;;;;23.17;37.39;101887.50;5056356;28;45676;-85
2021/06/09 00:21:17;;;;;;;;;2.00;2.00;;;;;23.16;37.36;101898.06;5054981;28;45385;-86
2021/06/09 00:23:44;;;;;;;;;3.00;3.00;;;;;23.12;37.25;101897.16;5056853;28;45350;-85
2021/06/09 00:26:10;;;;;;;;;2.00;2.00;;;;;22.94;37.11;101886.41;5056478;27;46864;-85
2021/06/09 00:28:37;;;;;;;;;3.75;3.75;;;;;22.93;37.06;101884.63;5055200;28;45311;-85
2021/06/09 00:31:04;;;;;;;;;2.00;2.00;;;;;23.02;37.45;101896.16;5056061;28;45379;-84
2021/06/09 00:33:30;;;;;;;;;2.75;2.50;;;;;22.92;37.40;101877.56;5056879;28;45443;-86
2021/06/09 00:35:58;;;;;;;;;2.75;2.75;;;;;22.97;37.02;101895.25;5054626;28;47533;-86
2021/06/09 00:38:25;;;;;;;;;3.00;3.00;;;;;22.97;37.07;101892.59;5056353;27;45703;-86
2021/06/09 00:40:51;;;;;;;;;3.00;3.00;;;;;22.86;37.05;101879.25;5058094;28;45333;-86
2021/06/09 00:43:19;;;;;;;;;3.00;3.00;;;;;22.93;37.06;101893.44;5063856;28;45270;-86
2021/06/09 00:45:53;;;;;;;;;3.00;3.00;;;;;22.85;36.91;101877.50;5056523;28;46471;-86
2021/06/09 00:48:24;;;;;;;;;3.00;3.00;;;;;22.91;37.38;101891.66;5054991;28;45729;-86
2021/06/09 00:50:50;;;;;;;;;2.50;2.50;;;;;22.84;37.08;101888.03;5059002;28;45369;-87
2021/06/09 00:53:28;;;;;;;;;3.00;3.00;;;;;22.77;36.91;101867.72;5058668;28;45369;-86
2021/06/09 00:55:58;;;;;;;;;4.00;3.00;;;;;22.73;36.98;101874.75;5057867;28;46915;-87
2021/06/09 00:58:25;;;;;;;;;2.50;2.50;;;;;22.76;37.05;101872.13;5059745;28;45823;-86
2021/06/09 01:00:51;;;;;;;;;4.50;3.00;;;;;22.76;37.63;101869.47;5059655;28;45337;-86
2021/06/09 01:03:18;;;;;;;;;3.50;2.50;;;;;22.73;37.47;101861.53;5058818;28;45286;-86
2021/06/09 01:05:44;;;;;;;;;5.00;5.00;;;;;22.82;39.00;101873.94;5058239;28;47122;-86
2021/06/09 01:08:09;;;;;;;;;6.00;5.25;;;;;22.75;39.85;101872.97;5059212;28;45386;-86
2021/06/09 01:10:35;;;;;;;;;8.50;7.25;;;;;22.58;40.25;101854.31;5060394;28;45514;-87
2021/06/09 01:13:02;;;;;;;;;4.50;4.50;;;;;22.55;40.63;101876.28;5061629;28;45781;-87
2021/06/09 01:15:29;;;;;;;;;8.25;7.25;;;;;22.48;40.76;101865.63;5064567;28;45409;-87
2021/06/09 01:17:55;;;;;;;;;7.75;6.00;;;;;22.53;41.42;101864.81;5069078;28;45012;-86
2021/06/09 01:20:21;;;;;;;;;7.00;6.25;;;;;22.51;41.54;101863.03;5066919;28;45296;-85
2021/06/09 01:22:48;;;;;;;;;8.50;7.25;;;;;22.53;41.82;101866.56;5061264;28;45373;-86
2021/06/09 01:25:13;;;;;;;;;8.25;6.50;;;;;22.51;41.51;101863.03;5058458;28;48139;-85
2021/06/09 01:27:40;;;;;;;;;9.00;7.00;;;;;22.51;41.96;101856.00;5057938;28;45813;-85
2021/06/09 01:30:11;;;;;;;;;6.50;6.00;;;;;22.51;42.73;101868.31;5058154;28;45437;-85
2021/06/09 01:32:37;;;;;;;;;6.00;6.00;;;;;22.46;42.61;101872.66;5060634;28;45584;-86
2021/06/09 01:35:05;;;;;;;;;8.00;6.50;;;;;22.35;42.77;101861.91;5075836;28;47068;-86
2021/06/09 01:37:31;;;;;;;;;6.50;6.50;;;;;22.30;42.34;101856.59;5085990;28;44866;-84
2021/06/09 01:39:59;;;;;;;;;7.50;7.00;;;;;22.30;42.97;101855.72;5086217;27;44789;-86
2021/06/09 01:42:30;;;;;;;;;6.25;6.00;;;;;22.32;43.04;101859.22;5068457;27;45475;-86
2021/06/09 01:44:56;;;;;;;;;6.00;5.00;;;;;22.31;43.24;101868.91;5066550;28;46192;-86
2021/06/09 01:47:23;;;;;;;;;8.00;7.00;;;;;22.32;43.14;101873.31;5060193;28;45885;-86
2021/06/09 01:49:50;;;;;;;;;8.00;8.00;;;;;22.22;43.11;101866.16;5058981;28;45255;-86
2021/06/09 01:52:17;;;;;;;;;7.50;6.25;;;;;22.18;43.72;101872.25;5057472;28;45335;-86
2021/06/09 01:54:43;;;;;;;;;8.50;7.75;;;;;22.17;43.60;101868.75;5057066;28;45520;-86
2021/06/09 01:57:10;;;;;;;;;10.25;8.00;;;;;22.07;43.41;101869.47;5057591;28;45533;-86
2021/06/09 01:59:36;;;;;;;;;6.75;6.75;;;;;22.03;43.85;101851.81;5058749;28;45398;-85
2021/06/09 02:02:02;;;;;;;;;6.75;6.75;;;;;22.06;43.74;101859.78;5058519;28;45516;-86
2021/06/09 02:04:28;;;;;;;;;8.00;8.00;;;;;22.08;43.85;101858.94;5057457;28;47720;-86
2021/06/09 02:06:55;;;;;;;;;7.25;7.25;;;;;22.13;43.97;101866.03;5058842;27;45381;-86
2021/06/09 02:09:22;;;;;;;;;10.00;7.50;;;;;22.13;43.93;101869.56;5057926;27;45358;-86
2021/06/09 02:11:49;;;;;;;;;9.75;7.25;;;;;22.00;43.92;101860.59;5058230;28;45294;-86
2021/06/09 02:14:16;;;;;;;;;7.50;6.50;;;;;22.03;43.94;101857.09;5059305;28;46163;-86
2021/06/09 02:16:44;;;;;;;;;8.75;8.50;;;;;21.90;44.06;101842.88;5064935;28;45442;-86
2021/06/09 02:19:10;;;;;;;;;9.00;7.50;;;;;21.93;44.46;101854.34;5062382;28;45197;-86
2021/06/09 02:21:38;;;;;;;;;9.50;8.00;;;;;21.93;44.08;101861.34;5058964;28;45349;-86
2021/06/09 02:24:06;;;;;;;;;8.25;7.75;;;;;21.86;44.26;101855.13;5059538;28;45362;-86
2021/06/09 02:26:33;;;;;;;;;9.50;8.00;;;;;21.88;44.58;101873.59;5058797;28;45982;-86
2021/06/09 02:29:00;;;;;;;;;10.00;9.00;;;;;21.80;44.49;101865.56;5057874;28;45386;-86
2021/06/09 02:31:27;;;;;;;;;7.25;7.25;;;;;21.68;45.12;101853.09;5040625;28;45378;-86
2021/06/09 02:33:54;;;;;;;;;8.75;8.00;;;;;21.77;45.02;101873.41;5056855;28;47752;-86
2021/06/09 02:36:20;;;;;;;;;8.75;8.75;;;;;21.75;44.87;101864.63;5056833;28;45434;-86
2021/06/09 02:38:48;;;;;;;;;6.25;6.25;;;;;21.77;44.82;101876.03;5058673;28;45909;-86
2021/06/09 02:41:15;;;;;;;;;7.75;7.75;;;;;21.62;45.06;101874.06;5061157;28;45417;-86
2021/06/09 02:43:41;;;;;;;;;9.00;7.75;;;;;21.43;45.66;101852.66;5079836;27;45932;-86
2021/06/09 02:46:31;;;;;;;;;9.00;8.00;;;;;21.33;45.84;101856.88;5075339;28;45394;-86
2021/06/09 02:49:06;;;;;;;;;10.25;10.25;;;;;21.33;45.94;101856.88;5082367;28;45366;-86
2021/06/09 02:51:42;;;;;;;;;10.00;9.50;;;;;21.24;46.06;101856.72;5078673;28;45235;-86
2021/06/09 02:54:42;;;;;;;;;9.00;6.50;;;;;21.18;46.88;101875.06;5068423;28;45403;-86
2021/06/09 02:57:45;;;;;;;;;10.50;10.00;;;;;21.07;46.35;101863.44;5054886;28;45743;-86
2021/06/09 03:00:39;;;;;;;;;9.00;9.00;;;;;21.03;46.81;101873.03;5057676;28;45458;-86
2021/06/09 03:03:25;;;;;;;;;8.00;8.00;;;;;20.98;46.87;101872.06;5058412;28;45419;-86
2021/06/09 03:05:59;;;;;;;;;7.25;7.25;;;;;20.92;47.04;101857.03;5056405;28;47251;-86
2021/06/09 03:08:37;;;;;;;;;9.00;9.00;;;;;20.97;46.51;101865.91;5057515;28;45248;-86
2021/06/09 03:11:28;;;;;;;;;9.75;8.75;;;;;21.11;46.86;101873.19;5055840;27;45430;-86
2021/06/09 03:17:01;;;;;;;;;10.00;8.00;;;;;21.09;46.30;101862.59;5052589;28;45699;-85
2021/06/09 03:19:54;;;;;;;;;8.50;8.50;;;;;21.03;46.79;101873.03;5062395;28;45996;-86
2021/06/09 03:22:33;;;;;;;;;8.00;8.00;;;;;20.89;46.92;101859.63;5060792;28;45322;-86
2021/06/09 03:25:01;;;;;;;;;8.00;8.00;;;;;20.86;47.43;101875.34;5058443;28;45349;-86
2021/06/09 03:27:33;;;;;;;;;11.00;9.00;;;;;20.84;47.42;101871.78;5069581;28;46434;-86
2021/06/09 03:30:05;;;;;;;;;10.25;9.00;;;;;20.59;48.06;101880.91;5084071;27;45043;-85
2021/06/09 03:32:51;;;;;;;;;7.75;5.00;;;;;20.60;47.56;101874.81;5080553;27;45413;-86
2021/06/09 03:35:29;;;;;;;;;10.00;9.25;;;;;20.63;47.68;101875.75;5062495;28;45336;-86
2021/06/09 03:38:00;;;;;;;;;8.00;8.00;;;;;20.57;47.54;101862.47;5057082;28;46807;-86
2021/06/09 03:40:31;;;;;;;;;6.50;6.50;;;;;20.67;47.36;101874.97;5056309;28;45795;-86
2021/06/09 03:43:01;;;;;;;;;8.75;8.75;;;;;20.59;47.82;101879.16;5057466;28;45464;-86
2021/06/09 03:45:30;;;;;;;;;9.50;9.50;;;;;20.57;48.18;101873.88;5055953;28;45269;-85
2021/06/09 03:47:57;;;;;;;;;8.00;8.00;;;;;20.54;48.29;101865.91;5058565;28;47929;-86
2021/06/09 03:50:25;;;;;;;;;8.00;8.00;;;;;20.60;48.21;101874.81;5061827;28;45735;-87
2021/06/09 03:52:52;;;;;;;;;11.75;8.75;;;;;20.40;48.16;101872.66;5058233;28;45279;-86
2021/06/09 03:55:22;;;;;;;;;8.25;8.25;;;;;20.39;48.22;101878.75;5058289;28;45502;-86
2021/06/09 03:57:53;;;;;;;;;8.00;8.00;;;;;20.50;48.15;101874.63;5072513;28;47828;-86
2021/06/09 04:00:23;;;;;;;;;9.00;8.00;;;;;20.45;47.83;101867.50;5056049;28;45965;-86
2021/06/09 04:02:51;;;;;;;;;8.25;8.25;;;;;20.37;48.40;101869.94;5055428;28;45438;-86
2021/06/09 04:05:18;;;;;;;;;8.00;8.00;;;;;20.46;47.95;101874.53;5057279;28;45591;-85
2021/06/09 04:07:45;;;;;;;;;6.75;6.50;;;;;20.40;48.30;101860.38;5072339;28;47206;-85
2021/06/09 04:10:12;;;;;;;;;9.75;9.00;;;;;20.46;48.17;101862.25;5055862;28;45625;-86
2021/06/09 04:12:38;;;;;;;;;9.25;8.50;;;;;20.50;48.28;101874.63;5055982;28;45464;-86
2021/06/09 04:15:08;;;;;;;;;11.50;9.00;;;;;20.34;48.02;101867.25;5073602;28;45507;-85
2021/06/09 04:17:36;;;;;;;;;9.00;6.75;;;;;20.35;48.25;101872.56;5057510;28;45433;-85
2021/06/09 04:20:04;;;;;;;;;6.75;6.00;;;;;20.16;48.63;101862.47;5056521;28;45421;-84
2021/06/09 04:22:34;;;;;;;;;7.00;7.00;;;;;20.13;48.65;101867.69;5060790;28;45336;-84
2021/06/09 04:25:06;;;;;;;;;7.00;7.00;;;;;20.18;48.87;101860.78;5055257;28;45502;-84
2021/06/09 04:27:35;;;;;;;;;10.50;9.75;;;;;20.28;48.62;101869.75;5057022;28;46400;-86
2021/06/09 04:30:04;;;;;;;;;7.50;7.50;;;;;20.35;48.27;101866.41;5055912;28;45681;-85
2021/06/09 04:32:56;;;;;;;;;9.00;9.00;;;;;20.13;48.40;101860.66;5059878;28;45227;-85
2021/06/09 04:35:24;;;;;;;;;8.00;8.00;;;;;20.22;48.40;101871.38;5059138;28;45441;-85
2021/06/09 04:37:51;;;;;;;;;7.00;7.00;;;;;20.19;48.67;101870.44;5055652;28;46874;-84
2021/06/09 04:40:25;;;;;;;;;11.50;10.00;;;;;20.28;48.49;101875.00;5057608;28;45345;-85
2021/06/09 04:42:53;;;;;;;;;9.50;8.00;;;;;20.27;48.47;101874.13;5055602;28;45379;-86
2021/06/09 04:45:20;;;;;;;;;8.25;7.00;;;;;20.29;48.60;101880.28;5058801;28;45371;-83
2021/06/09 04:47:46;;;;;;;;;7.00;7.00;;;;;20.35;48.59;101876.91;5074604;27;47034;-84
2021/06/09 04:50:17;;;;;;;;;11.75;9.25;;;;;20.34;48.30;101877.75;5067865;28;45342;-86
2021/06/09 04:52:43;;;;;;;;;10.00;8.00;;;;;20.31;48.64;101873.34;5086479;27;45374;-86
2021/06/09 04:55:09;;;;;;;;;6.75;6.75;;;;;20.37;48.62;101883.97;5077563;28;44951;-86
2021/06/09 04:57:35;;;;;;;;;11.00;8.00;;;;;20.33;48.08;101866.38;5081725;28;45375;-84
2021/06/09 05:00:05;;;;;;;;;5.75;5.50;;;;;20.19;48.55;101867.81;5076491;28;45049;-86
2021/06/09 05:02:31;;;;;;;;;10.00;8.75;;;;;20.20;48.21;101869.59;5067136;27;45382;-86
2021/06/09 05:04:56;;;;;;;;;8.75;8.75;;;;;20.00;48.88;101880.53;5056626;28;45550;-86
2021/06/09 05:07:22;;;;;;;;;6.25;5.75;;;;;19.91;49.14;101889.09;5057719;28;45257;-85
2021/06/09 05:09:47;;;;;;;;;9.25;7.00;;;;;20.01;49.41;101886.69;5056298;28;45254;-86
2021/06/09 05:12:19;;;;;;;;;7.00;7.00;;;;;19.92;49.53;101877.72;5055650;28;45381;-87
2021/06/09 05:15:00;;;;;;;;;8.00;8.00;;;;;20.12;49.28;101886.94;5056989;28;45265;-86
2021/06/09 05:17:29;;;;;;;;;7.75;7.00;;;;;20.17;48.96;101872.13;5056326;28;46388;-86
2021/06/09 05:19:56;;;;;;;;;10.50;8.00;;;;;20.30;49.06;101886.47;5056075;28;45326;-86
2021/06/09 05:22:29;;;;;;;;;7.00;7.00;;;;;20.36;48.91;101891.84;5055521;28;45365;-86
2021/06/09 05:24:57;;;;;;;;;8.75;8.00;;;;;20.37;48.60;101877.84;5061884;28;45365;-85
2021/06/09 05:27:26;;;;;;;;;8.75;7.00;;;;;20.44;48.88;101887.63;5057317;28;46856;-85
2021/06/09 05:29:52;;;;;;;;;8.50;8.50;;;;;20.53;48.92;101897.47;5055872;28;45959;-84
2021/06/09 05:32:19;;;;;;;;;7.25;6.75;;;;;20.59;48.18;101891.44;5054222;28;45463;-84
2021/06/09 05:34:46;;;;;;;;;8.00;7.75;;;;;20.54;48.06;101883.47;5053675;28;45488;-85
2021/06/09 05:37:14;;;;;;;;;8.25;6.75;;;;;20.59;48.47;101892.31;5058101;28;46098;-84
2021/06/09 05:39:40;;;;;;;;;9.00;7.75;;;;;20.62;48.44;101886.25;5058804;28;45828;-83
2021/06/09 05:42:11;;;;;;;;;9.25;8.00;;;;;20.68;48.27;101896.88;5057504;28;45456;-84
2021/06/09 05:44:40;;;;;;;;;11.25;9.00;;;;;20.57;48.32;101894.94;5061051;27;45537;-83
2021/06/09 05:47:06;;;;;;;;;9.50;9.50;;;;;20.21;49.05;101877.50;5056855;28;46841;-85
2021/06/09 05:49:32;;;;;;;;;10.50;10.25;;;;;20.28;48.95;101899.56;5058808;28;45434;-84
2021/06/09 05:51:58;;;;;;;;;10.00;10.00;;;;;20.30;48.83;101895.22;5062071;28;45389;-81
2021/06/09 05:54:24;;;;;;;;;11.25;9.25;;;;;20.42;49.41;101890.22;5061724;28;45303;-82
2021/06/09 05:56:50;;;;;;;;;10.00;9.00;;;;;20.52;49.46;101893.06;5062222;28;46359;-84
2021/06/09 05:59:16;;;;;;;;;13.00;10.50;;;;;20.52;49.07;101893.06;5058437;28;45876;-78
2021/06/09 06:01:43;;;;;;;;;11.25;9.50;;;;;20.63;49.34;101888.91;5057202;28;45509;-81
2021/06/09 06:04:09;;;;;;;;;10.75;10.50;;;;;20.65;48.95;101892.47;5057126;28;45509;-89
2021/06/09 06:06:36;;;;;;;;;13.50;10.25;;;;;20.75;48.64;101898.81;5056849;28;46423;-83
2021/06/09 06:09:03;;;;;;;;;10.00;9.00;;;;;20.75;49.08;101880.38;5060484;28;45455;-87
2021/06/09 06:11:29;;;;;;;;;10.75;10.25;;;;;20.87;48.73;101891.16;5074703;28;45398;-86
2021/06/09 06:13:55;;;;;;;;;13.75;12.75;;;;;20.92;48.82;101890.38;5062521;28;45580;-82
2021/06/09 06:16:21;;;;;;;;;11.75;10.50;;;;;20.94;48.83;101892.19;5059071;28;46123;-86
2021/06/09 06:18:49;;;;;;;;;11.75;11.75;;;;;20.94;48.67;101894.81;5056099;28;45520;-85
2021/06/09 06:21:17;;;;;;;;;16.75;11.25;;;;;21.02;48.33;101887.06;5057809;28;45536;-81
2021/06/09 06:23:44;;;;;;;;;14.75;13.25;;;;;21.08;48.05;101888.91;5058838;28;45556;-81
2021/06/09 06:26:14;;;;;;;;;11.00;11.00;;;;;21.08;47.96;101887.16;5061776;28;46188;-83
2021/06/09 06:28:40;;;;;;;;;22.25;17.75;;;;;21.14;48.33;101889.03;5059155;28;45946;-81
2021/06/09 06:31:11;;;;;;;;;14.50;12.75;;;;;21.10;48.05;101874.91;5057579;28;45405;-80
2021/06/09 06:33:38;;;;;;;;;16.25;13.25;;;;;21.18;48.02;101872.44;5056900;28;45325;-80
2021/06/09 06:36:05;;;;;;;;;10.75;10.75;;;;;21.31;48.31;101884.97;5056241;28;45935;-80
2021/06/09 06:38:36;;;;;;;;;12.75;12.75;;;;;21.32;47.84;101877.94;5057393;28;46004;-81
2021/06/09 06:41:03;;;;;;;;;16.50;14.25;;;;;21.47;48.28;101885.22;5057008;28;45363;-75
2021/06/09 06:43:29;;;;;;;;;21.00;16.75;;;;;21.50;47.63;101887.91;5056563;28;45651;-77
2021/06/09 06:45:54;;;;;;;;;15.00;12.00;;;;;21.55;47.76;101882.72;5057134;28;46266;-82
2021/06/09 06:48:23;;;;;;;;;13.75;11.25;;;;;21.61;48.06;101883.72;5056765;28;45334;-80
2021/06/09 06:50:49;;;;;;;;;15.75;12.50;;;;;21.67;47.66;101893.47;5059269;28;45292;-82
2021/06/09 06:53:15;;;;;;;;;16.25;14.00;;;;;21.72;47.65;101896.19;5058168;28;45555;-82
2021/06/09 06:55:41;;;;;;;;;20.00;18.75;;;;;21.76;47.08;101888.34;5056090;28;46064;-82
2021/06/09 06:58:08;;;;;;;;;23.00;22.00;;;;;21.85;46.99;101894.63;5059232;28;45325;-82
2021/06/09 07:00:35;;;;;;;;;24.75;23.00;;;;;21.76;47.11;101898.91;5058521;28;45293;-82
2021/06/09 07:03:04;;;;;;;;;22.00;20.25;;;;;21.83;46.96;101905.16;5057208;27;45344;-76
2021/06/09 07:05:33;;;;;;;;;19.00;18.25;;;;;21.83;47.00;101897.25;5056341;28;45460;-76
2021/06/09 07:08:01;;;;;;;;;20.00;18.25;;;;;21.94;46.84;101897.41;5056301;28;45821;-76
2021/06/09 07:10:28;;;;;;;;;25.50;21.50;;;;;22.03;46.64;101891.38;5056849;28;45425;-76
2021/06/09 07:12:59;;;;;;;;;28.50;24.50;;;;;22.08;46.60;101898.50;5056373;28;45364;-76
2021/06/09 07:15:27;;;;;;;;;23.75;23.00;;;;;22.15;46.91;101895.94;5056177;28;45405;-76
2021/06/09 07:17:58;;;;;;;;;22.75;21.00;;;;;22.20;46.47;101889.84;5056088;28;45855;-77
2021/06/09 07:20:27;;;;;;;;;26.00;24.50;;;;;22.25;46.13;101885.53;5056677;28;45449;-79
2021/06/09 07:22:54;;;;;;;;;27.25;22.75;;;;;22.35;45.93;101893.59;5056214;27;45439;-78
2021/06/09 07:25:21;;;;;;;;;26.50;24.25;;;;;22.39;46.13;101898.91;5054793;28;46011;-77
2021/06/09 07:27:51;;;;;;;;;28.25;28.25;;;;;22.38;45.61;101888.34;5055984;28;45437;-77
2021/06/09 07:30:19;;;;;;;;;34.25;31.00;;;;;22.35;45.73;101888.31;5056221;28;45457;-77
2021/06/09 07:32:47;;;;;;;;;30.75;27.00;;;;;22.38;45.89;101893.63;5056089;28;45318;-78
2021/06/09 07:35:15;;;;;;;;;30.00;25.25;;;;;22.35;45.84;101890.94;5055890;28;45409;-78
2021/06/09 07:37:53;;;;;;;;;26.50;24.75;;;;;22.44;45.83;101895.50;5056203;28;45318;-79
2021/06/09 07:40:31;;;;;;;;;29.25;27.75;;;;;22.51;45.97;101892.06;5054875;27;45354;-79
2021/06/09 07:43:12;;;;;;;;;37.25;30.50;;;;;22.52;46.31;101899.13;5056377;28;45392;-76
2021/06/09 07:45:40;;;;;;;;;28.25;26.50;;;;;22.53;45.94;101890.34;5056421;28;45402;-79
2021/06/09 07:48:07;;;;;;;;;31.75;28.75;;;;;22.58;45.73;101885.97;5056190;28;45894;-77
2021/06/09 07:50:37;;;;;;;;;30.00;26.50;;;;;22.62;45.72;101886.94;5056255;28;45255;-78
2021/06/09 07:53:10;;;;;;;;;35.50;32.75;;;;;22.66;46.26;101886.97;5055796;28;45344;-78
2021/06/09 07:55:41;;;;;;;;;35.00;31.00;;;;;22.72;45.56;101887.03;5055697;28;46552;-77
2021/06/09 07:58:08;;;;;;;;;38.75;33.00;;;;;22.75;45.35;101898.50;5056001;28;45412;-78
2021/06/09 08:00:34;;;;;;;;;38.00;30.50;;;;;22.76;45.41;101890.59;5055064;28;45587;-77
2021/06/09 08:03:02;;;;;;;;;33.25;29.25;;;;;22.79;45.30;101889.72;5056719;28;45451;-78
2021/06/09 08:05:28;;;;;;;;;39.25;29.75;;;;;22.85;45.46;101895.97;5056008;28;45450;-80
2021/06/09 08:07:54;;;;;;;;;31.25;26.00;;;;;22.90;45.40;101903.06;5055771;28;45784;-84
2021/06/09 08:10:21;;;;;;;;;37.75;32.00;;;;;22.94;45.17;101900.47;5056237;28;45331;-78
2021/06/09 08:12:51;;;;;;;;;31.00;27.75;;;;;22.95;45.14;101896.97;5056218;28;45470;-79
2021/06/09 08:15:18;;;;;;;;;31.00;29.75;;;;;23.01;45.27;101901.44;5055734;28;45572;-77
2021/06/09 08:17:46;;;;;;;;;24.50;23.75;;;;;23.03;45.32;101892.66;5055437;28;45280;-79
2021/06/09 08:20:18;;;;;;;;;29.50;27.25;;;;;23.06;44.92;101893.56;5055989;28;45295;-77
2021/06/09 08:22:45;;;;;;;;;24.00;23.75;;;;;23.04;44.67;101893.56;5055881;28;45484;-77
2021/06/09 08:25:16;;;;;;;;;27.25;24.00;;;;;23.09;44.82;101891.81;5056034;27;46109;-79
2021/06/09 08:27:43;;;;;;;;;31.25;26.00;;;;;23.10;44.84;101885.69;5054452;28;45888;-77
2021/06/09 08:30:09;;;;;;;;;28.00;26.25;;;;;23.15;44.67;101897.19;5055256;28;45229;-77
2021/06/09 08:32:36;;;;;;;;;27.00;21.75;;;;;23.19;44.58;101892.84;5056711;28;45328;-78
2021/06/09 08:35:04;;;;;;;;;24.25;23.00;;;;;23.22;44.43;101887.56;5056577;28;46199;-79
2021/06/09 08:37:30;;;;;;;;;27.75;27.25;;;;;23.21;44.11;101883.19;5055837;27;45824;-80
2021/06/09 08:39:55;;;;;;;;;25.50;21.75;;;;;23.28;44.58;101884.09;5055515;28;45385;-76
2021/06/09 08:42:24;;;;;;;;;25.50;23.50;;;;;23.28;44.65;101892.03;5055523;28;45414;-75
2021/06/09 08:44:50;;;;;;;;;22.50;19.75;;;;;23.35;44.47;101893.88;5054779;28;46436;-75
2021/06/09 08:47:17;;;;;;;;;21.25;18.50;;;;;23.36;44.47;101894.75;5055245;28;45399;-75
2021/06/09 08:49:44;;;;;;;;;19.50;19.00;;;;;23.40;44.04;101888.63;5054790;28;45173;-76
2021/06/09 08:52:14;;;;;;;;;18.50;18.00;;;;;23.45;44.20;101890.44;5055498;28;45358;-77
2021/06/09 08:54:49;;;;;;;;;21.25;19.75;;;;;23.36;44.05;101887.72;5055035;28;46543;-77
2021/06/09 08:57:16;;;;;;;;;19.00;17.75;;;;;23.45;44.20;101887.81;5055232;28;46088;-77
2021/06/09 08:59:44;;;;;;;;;17.75;16.25;;;;;23.53;44.43;101897.53;5054992;28;45361;-79
2021/06/09 09:02:11;;;;;;;;;16.75;15.25;;;;;23.56;44.15;101890.50;5055321;28;45430;-76
2021/06/09 09:04:38;;;;;;;;;15.75;13.00;;;;;23.60;43.73;101886.13;5055449;28;46452;-77
2021/06/09 09:07:06;;;;;;;;;14.75;14.00;;;;;23.58;43.03;101886.13;5054902;28;45681;-78
2021/06/09 09:09:31;;;;;;;;;12.00;11.25;;;;;23.51;42.88;101892.25;5055506;28;45251;-76
2021/06/09 09:11:57;;;;;;;;;17.25;13.25;;;;;23.57;42.65;101881.72;5058076;28;45529;-80
2021/06/09 09:14:24;;;;;;;;;9.25;8.75;;;;;23.68;42.42;101891.47;5058328;28;45343;-75
2021/06/09 09:17:07;;;;;;;;;11.75;9.00;;;;;23.74;42.21;101892.41;5056745;28;45354;-76
2021/06/09 09:19:40;;;;;;;;;11.00;10.00;;;;;23.79;42.15;101893.34;5058588;28;45295;-75
2021/06/09 09:22:10;;;;;;;;;9.50;9.50;;;;;23.83;41.84;101888.97;5058397;28;45441;-75
2021/06/09 09:24:42;;;;;;;;;14.75;12.75;;;;;23.84;41.13;101888.09;5058476;28;46862;-75
2021/06/09 09:27:10;;;;;;;;;18.00;14.25;;;;;23.86;41.81;101889.00;5057196;28;45387;-75
2021/06/09 09:29:36;;;;;;;;;9.75;9.25;;;;;23.88;41.37;101891.63;5057970;28;45475;-75
2021/06/09 09:32:09;;;;;;;;;14.00;11.75;;;;;23.92;41.52;101882.81;5058092;28;45395;-75
2021/06/09 09:34:46;;;;;;;;;14.25;11.75;;;;;23.95;41.23;101898.75;5058175;28;46418;-80
2021/06/09 09:37:18;;;;;;;;;11.25;10.75;;;;;24.00;41.24;101901.44;5059493;27;45822;-77
2021/06/09 09:39:48;;;;;;;;;11.50;11.50;;;;;23.95;41.44;101896.13;5057777;28;45814;-82
2021/06/09 09:42:21;;;;;;;;;12.50;9.50;;;;;23.99;40.91;101903.22;5058685;28;45433;-74
2021/06/09 09:44:48;;;;;;;;;9.50;9.50;;;;;24.00;40.78;101914.66;5057926;28;46001;-76
2021/06/09 09:47:15;;;;;;;;;8.75;8.75;;;;;24.06;40.52;101910.31;5057691;28;45515;-76
2021/06/09 09:49:41;;;;;;;;;9.50;7.75;;;;;24.13;40.80;101910.34;5073452;28;45437;-75
2021/06/09 09:52:07;;;;;;;;;6.75;6.25;;;;;24.13;40.58;101897.13;5057874;28;45309;-76
2021/06/09 09:54:35;;;;;;;;;8.75;6.75;;;;;24.17;39.99;101907.72;5058127;28;45364;-76
2021/06/09 09:57:05;;;;;;;;;6.25;6.25;;;;;24.21;39.71;101901.56;5059475;28;45438;-76
2021/06/09 09:59:31;;;;;;;;;6.25;6.25;;;;;24.27;39.07;101900.72;5059007;28;45398;-77
2021/06/09 10:01:58;;;;;;;;;7.75;5.25;;;;;24.21;38.75;101890.09;5057730;27;45331;-76
2021/06/09 10:04:29;;;;;;;;;5.25;5.25;;;;;24.31;38.52;101888.38;5057742;28;46314;-77
2021/06/09 10:06:55;;;;;;;;;5.25;5.25;;;;;24.42;38.51;101894.59;5059085;28;45730;-78
2021/06/09 10:09:43;;;;;;;;;6.00;6.00;;;;;24.50;38.65;101892.91;5058528;28;45414;-76
2021/06/09 10:12:14;;;;;;;;;7.75;6.75;;;;;24.51;38.20;101894.63;5060097;28;45567;-81
2021/06/09 10:14:46;;;;;;;;;5.75;5.75;;;;;24.53;37.81;101892.88;5056881;28;46317;-75
2021/06/09 10:17:22;;;;;;;;;4.25;4.00;;;;;24.62;38.00;101902.63;5072991;27;45466;-75
2021/06/09 10:19:58;;;;;;;;;6.50;6.00;;;;;24.66;37.99;101890.28;5057377;28;45466;-74
2021/06/09 10:22:34;;;;;;;;;4.00;4.00;;;;;24.70;38.11;101890.34;5056690;28;45326;-77
2021/06/09 10:25:05;;;;;;;;;4.50;4.50;;;;;24.72;36.88;101893.88;5057183;28;45418;-76
2021/06/09 10:27:53;;;;;;;;;6.75;6.75;;;;;24.79;36.84;101893.88;5057376;28;45471;-79
2021/06/09 10:30:19;;;;;;;;;6.75;5.25;;;;;24.84;36.92;101887.72;5072930;28;45416;-76
2021/06/09 10:32:50;;;;;;;;;7.50;5.25;;;;;24.87;36.63;101893.03;5057431;28;45519;-75
2021/06/09 10:35:21;;;;;;;;;9.25;8.25;;;;;24.88;36.81;101893.94;5055918;28;46138;-75
2021/06/09 10:37:49;;;;;;;;;7.00;6.50;;;;;24.90;36.17;101889.50;5057373;28;45330;-76
2021/06/09 10:40:16;;;;;;;;;5.75;5.75;;;;;24.91;35.74;101893.06;5057135;28;45453;-76
2021/06/09 10:42:43;;;;;;;;;4.50;4.50;;;;;24.86;36.04;101888.59;5057341;28;45428;-76
2021/06/09 10:45:10;;;;;;;;;5.25;5.25;;;;;24.90;36.12;101889.50;5056175;28;47809;-75
2021/06/09 10:47:38;;;;;;;;;5.50;5.50;;;;;24.96;36.14;101888.63;5057508;28;45365;-76
2021/06/09 10:50:08;;;;;;;;;5.50;5.25;;;;;24.96;36.34;101886.88;5057042;28;45260;-75
2021/06/09 10:52:33;;;;;;;;;7.50;7.50;;;;;25.04;36.22;101892.19;5073316;27;45650;-78
2021/06/09 10:55:03;;;;;;;;;5.25;5.25;;;;;25.12;35.64;101890.44;5059042;28;46375;-77
2021/06/09 10:57:29;;;;;;;;;9.00;8.00;;;;;25.14;36.21;101891.34;5057107;28;45348;-76
2021/06/09 10:59:55;;;;;;;;;6.25;6.25;;;;;24.96;36.05;101884.22;5056804;28;45493;-76
2021/06/09 11:02:23;;;;;;;;;5.25;5.25;;;;;24.98;35.46;101882.47;5073075;27;45262;-80
2021/06/09 11:04:54;;;;;;;;;6.00;5.00;;;;;25.13;35.97;101878.06;5056971;28;45532;-78
2021/06/09 11:07:29;;;;;;;;;5.75;5.00;;;;;25.18;36.23;101881.63;5057537;28;45373;-78
2021/06/09 11:09:57;;;;;;;;;7.25;5.75;;;;;25.24;35.92;101883.38;5057257;28;45432;-78
2021/06/09 11:12:26;;;;;;;;;7.50;5.75;;;;;25.12;35.40;101884.25;5056232;27;45260;-77
2021/06/09 11:14:58;;;;;;;;;6.75;6.50;;;;;25.22;36.03;101883.38;5056479;28;46018;-78
2021/06/09 11:17:35;;;;;;;;;6.75;6.00;;;;;25.30;35.91;101878.06;5056508;28;45459;-76
2021/06/09 11:20:37;;;;;;;;;6.75;6.75;;;;;25.28;35.53;101882.50;5056426;28;45561;-75
2021/06/09 11:23:09;;;;;;;;;4.50;4.50;;;;;25.39;35.38;101883.38;5056720;27;45442;-77
2021/06/09 11:25:46;;;;;;;;;8.25;6.50;;;;;25.52;35.81;101878.09;5056947;28;45536;-81
2021/06/09 11:28:18;;;;;;;;;15.00;15.00;;;;;25.61;35.89;101875.44;5058033;28;45866;-76
2021/06/09 11:31:08;;;;;;;;;13.00;10.75;;;;;25.59;35.25;101870.16;5057239;28;45439;-77
2021/06/09 11:33:52;;;;;;;;;10.25;9.25;;;;;25.58;35.65;101863.06;5056294;28;45279;-75